Applegate, Michigan
Current Conditions -  °F | °C
As of 6:00 AM on Monday 20 Oct 2014 (Local Time) from CYZR Reporting Station
Overcast Overcast  
Wind Chill: 42°   Ceiling: 7200
Heat Index: 46°   Visibility: 9mi
Dew Point: 43°   Wind: 8mph
Humidity: 87%   Direction: 190°S
Pressure: 29.87"   Gusts: NA
Location:  43.36°N, 82.64°W
Report Text: CYZR 201000Z AUTO 19007KT 9SM SCT060 OVC072 08/06 A2987 RMK PCPN 0.5MM PAST HR SLP117
Loading
Personal Weather Stations






























Interactive Weather Map New forecast layout! Learn more

10-Day Weather Forecast

Advertisements
Track Severe Weather on mobile